sensor_id;sensor_type;location;lat;lon;timestamp;temperature;humidity
35445;DHT22;21562;49.476;6.086;2023-05-19T00:01:27;15.90;91.70
35445;DHT22;21562;49.476;6.086;2023-05-19T00:03:57;15.80;92.00
35445;DHT22;21562;49.476;6.086;2023-05-19T00:06:27;15.30;92.80
35445;DHT22;21562;49.476;6.086;2023-05-19T00:08:58;15.10;93.60
35445;DHT22;21562;49.476;6.086;2023-05-19T00:11:25;15.20;93.70
35445;DHT22;21562;49.476;6.086;2023-05-19T00:13:57;14.90;94.50
35445;DHT22;21562;49.476;6.086;2023-05-19T00:16:24;14.90;94.80
35445;DHT22;21562;49.476;6.086;2023-05-19T00:18:50;15.00;94.70
35445;DHT22;21562;49.476;6.086;2023-05-19T00:21:16;15.10;94.60
35445;DHT22;21562;49.476;6.086;2023-05-19T00:23:42;15.20;94.60
35445;DHT22;21562;49.476;6.086;2023-05-19T00:26:07;15.30;94.70
35445;DHT22;21562;49.476;6.086;2023-05-19T00:28:33;15.30;94.80
35445;DHT22;21562;49.476;6.086;2023-05-19T00:30:58;15.30;95.20
35445;DHT22;21562;49.476;6.086;2023-05-19T00:33:25;15.20;95.30
35445;DHT22;21562;49.476;6.086;2023-05-19T00:35:51;15.20;95.40
35445;DHT22;21562;49.476;6.086;2023-05-19T00:38:16;15.20;95.60
35445;DHT22;21562;49.476;6.086;2023-05-19T00:40:42;14.90;96.10
35445;DHT22;21562;49.476;6.086;2023-05-19T00:43:07;15.00;96.30
35445;DHT22;21562;49.476;6.086;2023-05-19T00:45:33;14.90;96.70
35445;DHT22;21562;49.476;6.086;2023-05-19T00:47:59;14.90;96.50
35445;DHT22;21562;49.476;6.086;2023-05-19T00:50:26;15.00;96.60
35445;DHT22;21562;49.476;6.086;2023-05-19T00:52:53;15.00;96.60
35445;DHT22;21562;49.476;6.086;2023-05-19T00:55:22;14.90;97.00
35445;DHT22;21562;49.476;6.086;2023-05-19T00:57:49;14.90;97.20
35445;DHT22;21562;49.476;6.086;2023-05-19T01:00:15;14.90;97.20
35445;DHT22;21562;49.476;6.086;2023-05-19T01:02:42;14.90;97.40
35445;DHT22;21562;49.476;6.086;2023-05-19T01:05:08;14.90;97.50
35445;DHT22;21562;49.476;6.086;2023-05-19T01:07:34;14.80;97.80
35445;DHT22;21562;49.476;6.086;2023-05-19T01:09:59;14.80;98.10
35445;DHT22;21562;49.476;6.086;2023-05-19T01:12:25;14.70;98.40
35445;DHT22;21562;49.476;6.086;2023-05-19T01:14:51;14.70;98.50
35445;DHT22;21562;49.476;6.086;2023-05-19T01:20:38;14.60;98.90
35445;DHT22;21562;49.476;6.086;2023-05-19T01:30:39;14.50;99.50
35445;DHT22;21562;49.476;6.086;2023-05-19T01:33:08;14.60;98.90
35445;DHT22;21562;49.476;6.086;2023-05-19T01:35:36;14.50;99.90
35445;DHT22;21562;49.476;6.086;2023-05-19T01:38:03;14.50;99.90
35445;DHT22;21562;49.476;6.086;2023-05-19T01:40:30;14.50;99.90
35445;DHT22;21562;49.476;6.086;2023-05-19T01:42:58;14.50;99.90
35445;DHT22;21562;49.476;6.086;2023-05-19T01:45:25;14.50;99.90
35445;DHT22;21562;49.476;6.086;2023-05-19T01:47:58;14.50;99.90
35445;DHT22;21562;49.476;6.086;2023-05-19T01:50:24;14.40;99.90
35445;DHT22;21562;49.476;6.086;2023-05-19T01:52:50;14.40;99.90
35445;DHT22;21562;49.476;6.086;2023-05-19T01:55:16;14.40;99.90
35445;DHT22;21562;49.476;6.086;2023-05-19T01:57:49;14.30;99.90
35445;DHT22;21562;49.476;6.086;2023-05-19T02:06:14;14.20;99.90
35445;DHT22;21562;49.476;6.086;2023-05-19T02:11:39;14.20;99.90
35445;DHT22;21562;49.476;6.086;2023-05-19T02:17:13;14.10;99.90
35445;DHT22;21562;49.476;6.086;2023-05-19T02:19:42;14.20;99.90
35445;DHT22;21562;49.476;6.086;2023-05-19T02:22:08;14.10;99.90
35445;DHT22;21562;49.476;6.086;2023-05-19T02:24:33;14.20;99.90
35445;DHT22;21562;49.476;6.086;2023-05-19T02:26:59;14.10;99.90
35445;DHT22;21562;49.476;6.086;2023-05-19T02:29:24;14.10;99.90
35445;DHT22;21562;49.476;6.086;2023-05-19T02:31:50;14.10;99.90
35445;DHT22;21562;49.476;6.086;2023-05-19T02:34:16;14.00;99.90
35445;DHT22;21562;49.476;6.086;2023-05-19T02:36:41;14.00;99.90
35445;DHT22;21562;49.476;6.086;2023-05-19T02:39:11;13.90;99.90
35445;DHT22;21562;49.476;6.086;2023-05-19T02:41:37;13.90;99.90
35445;DHT22;21562;49.476;6.086;2023-05-19T02:44:03;13.90;99.90
35445;DHT22;21562;49.476;6.086;2023-05-19T02:46:29;13.90;99.90
35445;DHT22;21562;49.476;6.086;2023-05-19T02:48:55;13.90;99.90
35445;DHT22;21562;49.476;6.086;2023-05-19T02:51:21;13.80;99.90
35445;DHT22;21562;49.476;6.086;2023-05-19T02:53:46;13.80;99.90
35445;DHT22;21562;49.476;6.086;2023-05-19T02:56:12;13.80;99.90
35445;DHT22;21562;49.476;6.086;2023-05-19T02:58:38;13.80;99.90
35445;DHT22;21562;49.476;6.086;2023-05-19T03:01:04;13.70;99.90
35445;DHT22;21562;49.476;6.086;2023-05-19T03:03:29;13.70;99.90
35445;DHT22;21562;49.476;6.086;2023-05-19T03:05:55;13.70;99.90
35445;DHT22;21562;49.476;6.086;2023-05-19T03:08:21;13.80;99.90
35445;DHT22;21562;49.476;6.086;2023-05-19T03:10:46;13.70;99.90
35445;DHT22;21562;49.476;6.086;2023-05-19T03:13:12;13.70;99.90
35445;DHT22;21562;49.476;6.086;2023-05-19T03:15:38;13.60;99.90
35445;DHT22;21562;49.476;6.086;2023-05-19T03:18:04;13.60;99.90
35445;DHT22;21562;49.476;6.086;2023-05-19T03:20:30;13.70;99.90
35445;DHT22;21562;49.476;6.086;2023-05-19T03:22:56;13.60;99.90
35445;DHT22;21562;49.476;6.086;2023-05-19T03:25:22;13.60;99.90
35445;DHT22;21562;49.476;6.086;2023-05-19T03:27:48;13.60;99.90
35445;DHT22;21562;49.476;6.086;2023-05-19T03:30:13;13.70;99.90
35445;DHT22;21562;49.476;6.086;2023-05-19T03:32:39;13.60;99.90
35445;DHT22;21562;49.476;6.086;2023-05-19T03:35:05;13.60;99.90
35445;DHT22;21562;49.476;6.086;2023-05-19T03:37:31;13.60;99.90
35445;DHT22;21562;49.476;6.086;2023-05-19T03:40:00;13.60;99.90
35445;DHT22;21562;49.476;6.086;2023-05-19T03:42:25;13.60;99.90
35445;DHT22;21562;49.476;6.086;2023-05-19T03:44:51;13.50;99.90
35445;DHT22;21562;49.476;6.086;2023-05-19T03:47:17;13.40;99.90
35445;DHT22;21562;49.476;6.086;2023-05-19T03:49:42;13.40;99.90
35445;DHT22;21562;49.476;6.086;2023-05-19T03:52:08;13.30;99.90
35445;DHT22;21562;49.476;6.086;2023-05-19T03:54:34;13.30;99.90
35445;DHT22;21562;49.476;6.086;2023-05-19T03:57:00;13.30;99.90
35445;DHT22;21562;49.476;6.086;2023-05-19T03:59:27;13.30;99.90
35445;DHT22;21562;49.476;6.086;2023-05-19T04:01:52;13.30;99.90
35445;DHT22;21562;49.476;6.086;2023-05-19T04:04:18;13.30;99.90
35445;DHT22;21562;49.476;6.086;2023-05-19T04:06:44;13.30;99.90
35445;DHT22;21562;49.476;6.086;2023-05-19T04:09:13;13.30;99.90
35445;DHT22;21562;49.476;6.086;2023-05-19T04:11:40;13.20;99.90
35445;DHT22;21562;49.476;6.086;2023-05-19T04:14:06;13.20;99.90
35445;DHT22;21562;49.476;6.086;2023-05-19T04:16:32;13.20;99.90
35445;DHT22;21562;49.476;6.086;2023-05-19T04:18:58;13.30;99.90
35445;DHT22;21562;49.476;6.086;2023-05-19T04:21:24;13.20;99.90
35445;DHT22;21562;49.476;6.086;2023-05-19T04:23:50;13.20;99.90
35445;DHT22;21562;49.476;6.086;2023-05-19T04:26:15;13.30;99.90
35445;DHT22;21562;49.476;6.086;2023-05-19T04:28:42;13.30;99.90
35445;DHT22;21562;49.476;6.086;2023-05-19T04:31:09;13.30;99.90
35445;DHT22;21562;49.476;6.086;2023-05-19T04:33:37;13.30;99.90
35445;DHT22;21562;49.476;6.086;2023-05-19T04:36:03;13.30;99.90
35445;DHT22;21562;49.476;6.086;2023-05-19T04:38:33;13.20;99.90
35445;DHT22;21562;49.476;6.086;2023-05-19T04:40:58;13.30;99.90
35445;DHT22;21562;49.476;6.086;2023-05-19T04:43:26;13.30;99.90
35445;DHT22;21562;49.476;6.086;2023-05-19T04:45:52;13.40;99.90
35445;DHT22;21562;49.476;6.086;2023-05-19T04:48:19;13.50;99.90
35445;DHT22;21562;49.476;6.086;2023-05-19T04:50:46;13.50;99.90
35445;DHT22;21562;49.476;6.086;2023-05-19T04:53:13;13.50;99.90
35445;DHT22;21562;49.476;6.086;2023-05-19T04:55:39;13.60;99.90
35445;DHT22;21562;49.476;6.086;2023-05-19T04:58:05;13.60;99.90
35445;DHT22;21562;49.476;6.086;2023-05-19T05:00:31;13.70;99.90
35445;DHT22;21562;49.476;6.086;2023-05-19T05:02:57;13.70;99.90
35445;DHT22;21562;49.476;6.086;2023-05-19T05:05:22;13.60;99.90
35445;DHT22;21562;49.476;6.086;2023-05-19T05:07:49;13.60;99.90
35445;DHT22;21562;49.476;6.086;2023-05-19T05:10:15;13.60;99.90
35445;DHT22;21562;49.476;6.086;2023-05-19T05:12:41;13.60;99.90
35445;DHT22;21562;49.476;6.086;2023-05-19T05:15:07;13.60;99.90
35445;DHT22;21562;49.476;6.086;2023-05-19T05:17:33;13.30;99.90
35445;DHT22;21562;49.476;6.086;2023-05-19T05:20:00;13.10;99.90
35445;DHT22;21562;49.476;6.086;2023-05-19T05:22:26;12.80;99.90
35445;DHT22;21562;49.476;6.086;2023-05-19T05:24:52;13.00;99.90
35445;DHT22;21562;49.476;6.086;2023-05-19T05:27:18;13.10;99.90
35445;DHT22;21562;49.476;6.086;2023-05-19T05:29:44;13.10;99.90
35445;DHT22;21562;49.476;6.086;2023-05-19T05:32:09;13.30;99.90
35445;DHT22;21562;49.476;6.086;2023-05-19T05:34:35;13.30;99.90
35445;DHT22;21562;49.476;6.086;2023-05-19T05:37:02;13.00;99.90
35445;DHT22;21562;49.476;6.086;2023-05-19T05:39:28;12.80;99.90
35445;DHT22;21562;49.476;6.086;2023-05-19T05:41:54;12.90;99.90
35445;DHT22;21562;49.476;6.086;2023-05-19T05:44:19;13.10;99.90
35445;DHT22;21562;49.476;6.086;2023-05-19T05:46:45;13.20;99.90
35445;DHT22;21562;49.476;6.086;2023-05-19T05:49:11;13.30;99.90
35445;DHT22;21562;49.476;6.086;2023-05-19T05:51:38;13.50;99.90
35445;DHT22;21562;49.476;6.086;2023-05-19T05:54:05;13.70;99.90
35445;DHT22;21562;49.476;6.086;2023-05-19T05:56:32;13.70;99.90
35445;DHT22;21562;49.476;6.086;2023-05-19T05:59:01;13.80;99.90
35445;DHT22;21562;49.476;6.086;2023-05-19T06:01:27;13.80;99.90
35445;DHT22;21562;49.476;6.086;2023-05-19T06:03:54;13.60;99.90
35445;DHT22;21562;49.476;6.086;2023-05-19T06:06:20;13.70;99.90
35445;DHT22;21562;49.476;6.086;2023-05-19T06:08:46;13.80;99.90
35445;DHT22;21562;49.476;6.086;2023-05-19T06:11:11;13.70;99.90
35445;DHT22;21562;49.476;6.086;2023-05-19T06:13:37;13.80;99.90
35445;DHT22;21562;49.476;6.086;2023-05-19T06:16:04;13.90;99.90
35445;DHT22;21562;49.476;6.086;2023-05-19T06:18:30;13.70;99.90
35445;DHT22;21562;49.476;6.086;2023-05-19T06:20:56;13.60;99.90
35445;DHT22;21562;49.476;6.086;2023-05-19T06:23:21;13.60;99.90
35445;DHT22;21562;49.476;6.086;2023-05-19T06:25:48;13.70;99.90
35445;DHT22;21562;49.476;6.086;2023-05-19T06:28:13;13.80;99.90
35445;DHT22;21562;49.476;6.086;2023-05-19T06:30:39;13.70;99.90
35445;DHT22;21562;49.476;6.086;2023-05-19T06:33:04;13.50;99.90
35445;DHT22;21562;49.476;6.086;2023-05-19T06:35:30;13.60;99.90
35445;DHT22;21562;49.476;6.086;2023-05-19T06:37:56;13.60;99.90
35445;DHT22;21562;49.476;6.086;2023-05-19T06:40:22;13.40;99.90
35445;DHT22;21562;49.476;6.086;2023-05-19T06:42:48;13.40;99.90
35445;DHT22;21562;49.476;6.086;2023-05-19T06:45:13;13.60;99.90
35445;DHT22;21562;49.476;6.086;2023-05-19T06:47:39;13.50;99.90
35445;DHT22;21562;49.476;6.086;2023-05-19T06:50:09;13.60;99.90
35445;DHT22;21562;49.476;6.086;2023-05-19T06:52:35;13.80;99.90
35445;DHT22;21562;49.476;6.086;2023-05-19T06:55:01;14.10;99.90
35445;DHT22;21562;49.476;6.086;2023-05-19T06:57:26;14.00;99.90
35445;DHT22;21562;49.476;6.086;2023-05-19T06:59:52;14.20;99.90
35445;DHT22;21562;49.476;6.086;2023-05-19T07:02:17;14.40;99.90
35445;DHT22;21562;49.476;6.086;2023-05-19T07:04:43;14.50;99.90
35445;DHT22;21562;49.476;6.086;2023-05-19T07:07:09;14.70;99.90
35445;DHT22;21562;49.476;6.086;2023-05-19T07:09:34;14.40;99.90
35445;DHT22;21562;49.476;6.086;2023-05-19T07:12:00;14.50;99.90
35445;DHT22;21562;49.476;6.086;2023-05-19T07:14:26;14.70;99.90
35445;DHT22;21562;49.476;6.086;2023-05-19T07:16:52;14.80;99.90
35445;DHT22;21562;49.476;6.086;2023-05-19T07:19:17;15.00;99.90
35445;DHT22;21562;49.476;6.086;2023-05-19T07:21:44;15.20;99.90
35445;DHT22;21562;49.476;6.086;2023-05-19T07:24:10;14.80;99.90
35445;DHT22;21562;49.476;6.086;2023-05-19T07:26:36;14.00;99.90
35445;DHT22;21562;49.476;6.086;2023-05-19T07:29:01;14.20;99.90
35445;DHT22;21562;49.476;6.086;2023-05-19T07:31:27;14.50;99.90
35445;DHT22;21562;49.476;6.086;2023-05-19T07:33:53;14.80;99.90
35445;DHT22;21562;49.476;6.086;2023-05-19T07:36:18;14.50;99.90
35445;DHT22;21562;49.476;6.086;2023-05-19T07:38:47;14.80;99.90
35445;DHT22;21562;49.476;6.086;2023-05-19T07:41:13;15.00;99.90
35445;DHT22;21562;49.476;6.086;2023-05-19T07:43:38;15.20;99.90
35445;DHT22;21562;49.476;6.086;2023-05-19T07:46:04;15.30;99.90
35445;DHT22;21562;49.476;6.086;2023-05-19T07:48:30;15.40;99.90
35445;DHT22;21562;49.476;6.086;2023-05-19T07:50:56;15.60;99.90
35445;DHT22;21562;49.476;6.086;2023-05-19T07:53:21;15.70;99.90
35445;DHT22;21562;49.476;6.086;2023-05-19T07:55:47;16.00;99.20
35445;DHT22;21562;49.476;6.086;2023-05-19T07:58:13;16.30;99.40
35445;DHT22;21562;49.476;6.086;2023-05-19T08:00:39;16.30;98.90
35445;DHT22;21562;49.476;6.086;2023-05-19T08:03:08;16.30;98.50
35445;DHT22;21562;49.476;6.086;2023-05-19T08:05:34;16.20;98.90
35445;DHT22;21562;49.476;6.086;2023-05-19T08:08:00;16.30;98.50
35445;DHT22;21562;49.476;6.086;2023-05-19T08:10:27;16.30;98.30
35445;DHT22;21562;49.476;6.086;2023-05-19T08:12:52;16.30;98.20
35445;DHT22;21562;49.476;6.086;2023-05-19T08:15:18;16.30;97.80
35445;DHT22;21562;49.476;6.086;2023-05-19T08:17:44;16.00;98.20
35445;DHT22;21562;49.476;6.086;2023-05-19T08:20:10;16.20;99.20
35445;DHT22;21562;49.476;6.086;2023-05-19T08:22:39;16.10;98.40
35445;DHT22;21562;49.476;6.086;2023-05-19T08:25:05;16.10;98.40
35445;DHT22;21562;49.476;6.086;2023-05-19T08:27:31;16.10;99.20
35445;DHT22;21562;49.476;6.086;2023-05-19T08:29:58;16.40;98.90
35445;DHT22;21562;49.476;6.086;2023-05-19T08:32:23;16.70;97.60
35445;DHT22;21562;49.476;6.086;2023-05-19T08:34:49;16.60;98.10
35445;DHT22;21562;49.476;6.086;2023-05-19T08:37:15;16.80;98.00
35445;DHT22;21562;49.476;6.086;2023-05-19T08:39:40;17.10;97.20
35445;DHT22;21562;49.476;6.086;2023-05-19T08:42:06;17.40;97.40
35445;DHT22;21562;49.476;6.086;2023-05-19T08:44:37;17.60;96.50
35445;DHT22;21562;49.476;6.086;2023-05-19T08:47:04;17.80;96.80
35445;DHT22;21562;49.476;6.086;2023-05-19T08:49:34;17.60;96.30
35445;DHT22;21562;49.476;6.086;2023-05-19T08:52:24;17.50;97.70
35445;DHT22;21562;49.476;6.086;2023-05-19T08:55:11;17.80;96.70
35445;DHT22;21562;49.476;6.086;2023-05-19T08:57:39;17.20;96.40
35445;DHT22;21562;49.476;6.086;2023-05-19T09:00:06;17.20;96.70
35445;DHT22;21562;49.476;6.086;2023-05-19T09:02:37;17.40;96.70
35445;DHT22;21562;49.476;6.086;2023-05-19T09:05:04;17.70;97.20
35445;DHT22;21562;49.476;6.086;2023-05-19T09:07:30;18.00;96.40
35445;DHT22;21562;49.476;6.086;2023-05-19T09:09:59;18.20;95.10
35445;DHT22;21562;49.476;6.086;2023-05-19T09:12:25;18.50;95.00
35445;DHT22;21562;49.476;6.086;2023-05-19T09:14:51;18.60;95.20
35445;DHT22;21562;49.476;6.086;2023-05-19T09:17:17;18.90;95.60
35445;DHT22;21562;49.476;6.086;2023-05-19T09:19:46;19.20;94.30
35445;DHT22;21562;49.476;6.086;2023-05-19T09:22:15;19.10;94.20
35445;DHT22;21562;49.476;6.086;2023-05-19T09:24:43;19.00;93.80
35445;DHT22;21562;49.476;6.086;2023-05-19T09:27:13;19.20;93.60
35445;DHT22;21562;49.476;6.086;2023-05-19T09:29:39;19.50;92.70
35445;DHT22;21562;49.476;6.086;2023-05-19T09:32:05;19.20;92.50
35445;DHT22;21562;49.476;6.086;2023-05-19T09:34:31;19.50;91.80
35445;DHT22;21562;49.476;6.086;2023-05-19T09:36:57;19.70;92.20
35445;DHT22;21562;49.476;6.086;2023-05-19T09:39:24;19.80;91.60
35445;DHT22;21562;49.476;6.086;2023-05-19T09:41:51;19.50;91.10
35445;DHT22;21562;49.476;6.086;2023-05-19T09:44:24;19.60;91.40
35445;DHT22;21562;49.476;6.086;2023-05-19T09:46:57;19.80;90.90
35445;DHT22;21562;49.476;6.086;2023-05-19T09:49:27;19.70;91.40
35445;DHT22;21562;49.476;6.086;2023-05-19T09:51:58;19.80;91.80
35445;DHT22;21562;49.476;6.086;2023-05-19T09:54:25;19.90;90.40
35445;DHT22;21562;49.476;6.086;2023-05-19T09:56:59;19.40;90.00
35445;DHT22;21562;49.476;6.086;2023-05-19T09:59:26;19.20;89.60
35445;DHT22;21562;49.476;6.086;2023-05-19T10:01:54;19.30;89.60
35445;DHT22;21562;49.476;6.086;2023-05-19T10:04:22;19.50;89.60
35445;DHT22;21562;49.476;6.086;2023-05-19T10:06:49;19.90;86.00
35445;DHT22;21562;49.476;6.086;2023-05-19T10:09:22;20.10;87.50
35445;DHT22;21562;49.476;6.086;2023-05-19T10:11:51;20.30;85.80
35445;DHT22;21562;49.476;6.086;2023-05-19T10:14:21;20.40;87.40
35445;DHT22;21562;49.476;6.086;2023-05-19T10:16:50;20.50;85.20
35445;DHT22;21562;49.476;6.086;2023-05-19T10:19:19;20.60;83.00
35445;DHT22;21562;49.476;6.086;2023-05-19T10:21:46;20.80;83.20
35445;DHT22;21562;49.476;6.086;2023-05-19T10:24:12;20.90;80.90
35445;DHT22;21562;49.476;6.086;2023-05-19T10:26:39;21.00;81.00
35445;DHT22;21562;49.476;6.086;2023-05-19T10:29:07;20.90;83.10
35445;DHT22;21562;49.476;6.086;2023-05-19T10:31:34;20.90;82.30
35445;DHT22;21562;49.476;6.086;2023-05-19T10:39:22;21.80;79.40
35445;DHT22;21562;49.476;6.086;2023-05-19T10:47:26;21.20;79.30
35445;DHT22;21562;49.476;6.086;2023-05-19T10:49:55;21.20;80.10
35445;DHT22;21562;49.476;6.086;2023-05-19T10:52:22;20.30;80.10
35445;DHT22;21562;49.476;6.086;2023-05-19T10:54:50;20.40;82.80
35445;DHT22;21562;49.476;6.086;2023-05-19T10:57:20;20.00;81.00
35445;DHT22;21562;49.476;6.086;2023-05-19T10:59:49;20.20;82.10
35445;DHT22;21562;49.476;6.086;2023-05-19T11:02:43;20.50;83.00
35445;DHT22;21562;49.476;6.086;2023-05-19T11:05:15;21.10;82.70
35445;DHT22;21562;49.476;6.086;2023-05-19T11:07:43;21.50;81.30
35445;DHT22;21562;49.476;6.086;2023-05-19T11:10:09;22.10;80.30
35445;DHT22;21562;49.476;6.086;2023-05-19T11:12:44;22.50;79.20
35445;DHT22;21562;49.476;6.086;2023-05-19T11:15:13;22.80;78.60
35445;DHT22;21562;49.476;6.086;2023-05-19T11:17:40;22.30;76.70
35445;DHT22;21562;49.476;6.086;2023-05-19T11:20:21;22.40;77.40
35445;DHT22;21562;49.476;6.086;2023-05-19T11:23:24;22.40;78.30
35445;DHT22;21562;49.476;6.086;2023-05-19T11:25:51;22.80;79.10
35445;DHT22;21562;49.476;6.086;2023-05-19T11:28:20;22.70;78.10
35445;DHT22;21562;49.476;6.086;2023-05-19T11:30:50;22.60;78.50
35445;DHT22;21562;49.476;6.086;2023-05-19T11:33:19;22.50;76.60
35445;DHT22;21562;49.476;6.086;2023-05-19T11:35:46;22.20;76.20
35445;DHT22;21562;49.476;6.086;2023-05-19T11:38:12;22.10;77.40
35445;DHT22;21562;49.476;6.086;2023-05-19T11:40:40;22.50;77.80
35445;DHT22;21562;49.476;6.086;2023-05-19T11:43:06;22.70;77.80
35445;DHT22;21562;49.476;6.086;2023-05-19T11:45:32;22.90;77.10
35445;DHT22;21562;49.476;6.086;2023-05-19T11:47:59;22.70;76.60
35445;DHT22;21562;49.476;6.086;2023-05-19T11:50:25;22.00;75.30
35445;DHT22;21562;49.476;6.086;2023-05-19T11:52:51;21.20;77.10
35445;DHT22;21562;49.476;6.086;2023-05-19T11:55:18;21.50;78.00
35445;DHT22;21562;49.476;6.086;2023-05-19T11:57:58;21.90;79.50
35445;DHT22;21562;49.476;6.086;2023-05-19T12:00:25;22.30;77.50
35445;DHT22;21562;49.476;6.086;2023-05-19T12:02:51;22.80;77.90
35445;DHT22;21562;49.476;6.086;2023-05-19T12:05:19;22.70;75.50
35445;DHT22;21562;49.476;6.086;2023-05-19T12:07:45;22.40;75.90
35445;DHT22;21562;49.476;6.086;2023-05-19T12:10:14;22.50;76.70
35445;DHT22;21562;49.476;6.086;2023-05-19T12:12:40;22.90;76.90
35445;DHT22;21562;49.476;6.086;2023-05-19T12:15:07;22.90;75.40
35445;DHT22;21562;49.476;6.086;2023-05-19T12:17:33;23.20;74.00
35445;DHT22;21562;49.476;6.086;2023-05-19T12:19:59;23.30;74.90
35445;DHT22;21562;49.476;6.086;2023-05-19T12:22:25;23.40;75.20
35445;DHT22;21562;49.476;6.086;2023-05-19T12:24:51;23.20;76.20
35445;DHT22;21562;49.476;6.086;2023-05-19T12:27:18;22.90;74.90
35445;DHT22;21562;49.476;6.086;2023-05-19T12:29:52;22.80;74.30
35445;DHT22;21562;49.476;6.086;2023-05-19T12:32:22;22.80;75.40
35445;DHT22;21562;49.476;6.086;2023-05-19T12:34:48;23.10;76.10
35445;DHT22;21562;49.476;6.086;2023-05-19T12:37:14;23.60;74.60
35445;DHT22;21562;49.476;6.086;2023-05-19T12:39:41;24.00;75.20
35445;DHT22;21562;49.476;6.086;2023-05-19T12:42:07;23.80;74.90
35445;DHT22;21562;49.476;6.086;2023-05-19T12:44:52;23.60;75.50
35445;DHT22;21562;49.476;6.086;2023-05-19T12:47:19;23.80;74.70
35445;DHT22;21562;49.476;6.086;2023-05-19T12:50:02;23.90;74.50
35445;DHT22;21562;49.476;6.086;2023-05-19T12:52:31;23.50;73.40
35445;DHT22;21562;49.476;6.086;2023-05-19T12:55:06;23.20;71.20
35445;DHT22;21562;49.476;6.086;2023-05-19T12:57:39;22.70;72.20
35445;DHT22;21562;49.476;6.086;2023-05-19T13:02:53;23.20;74.00
35445;DHT22;21562;49.476;6.086;2023-05-19T13:05:19;23.60;73.10
35445;DHT22;21562;49.476;6.086;2023-05-19T13:07:59;23.60;74.40
35445;DHT22;21562;49.476;6.086;2023-05-19T13:10:27;23.20;73.00
35445;DHT22;21562;49.476;6.086;2023-05-19T13:12:57;23.30;74.50
35445;DHT22;21562;49.476;6.086;2023-05-19T13:15:26;22.80;74.80
35445;DHT22;21562;49.476;6.086;2023-05-19T13:17:52;23.00;74.70
35445;DHT22;21562;49.476;6.086;2023-05-19T13:20:19;23.10;75.00
35445;DHT22;21562;49.476;6.086;2023-05-19T13:22:46;23.10;74.40
35445;DHT22;21562;49.476;6.086;2023-05-19T13:25:12;23.10;75.30
35445;DHT22;21562;49.476;6.086;2023-05-19T13:27:37;23.60;74.20
35445;DHT22;21562;49.476;6.086;2023-05-19T13:30:03;23.90;74.80
35445;DHT22;21562;49.476;6.086;2023-05-19T13:32:29;23.90;72.80
35445;DHT22;21562;49.476;6.086;2023-05-19T13:34:55;24.10;72.80
35445;DHT22;21562;49.476;6.086;2023-05-19T13:37:22;24.00;72.60
35445;DHT22;21562;49.476;6.086;2023-05-19T13:39:47;23.80;73.20
35445;DHT22;21562;49.476;6.086;2023-05-19T13:42:13;23.70;73.00
35445;DHT22;21562;49.476;6.086;2023-05-19T13:44:38;24.00;72.80
35445;DHT22;21562;49.476;6.086;2023-05-19T13:47:04;24.20;72.70
35445;DHT22;21562;49.476;6.086;2023-05-19T13:49:30;23.80;73.40
35445;DHT22;21562;49.476;6.086;2023-05-19T13:51:56;23.60;73.70
35445;DHT22;21562;49.476;6.086;2023-05-19T13:54:24;23.50;74.30
35445;DHT22;21562;49.476;6.086;2023-05-19T13:56:50;23.30;75.00
35445;DHT22;21562;49.476;6.086;2023-05-19T13:59:16;23.20;74.40
35445;DHT22;21562;49.476;6.086;2023-05-19T14:01:42;23.50;76.00
35445;DHT22;21562;49.476;6.086;2023-05-19T14:04:08;23.60;72.80
35445;DHT22;21562;49.476;6.086;2023-05-19T14:06:34;23.50;74.40
35445;DHT22;21562;49.476;6.086;2023-05-19T14:09:01;23.50;74.40
35445;DHT22;21562;49.476;6.086;2023-05-19T14:11:27;23.20;74.40
35445;DHT22;21562;49.476;6.086;2023-05-19T14:13:52;23.00;74.40
35445;DHT22;21562;49.476;6.086;2023-05-19T14:16:18;22.70;74.00
35445;DHT22;21562;49.476;6.086;2023-05-19T14:18:44;22.40;74.80
35445;DHT22;21562;49.476;6.086;2023-05-19T14:21:10;22.70;75.70
35445;DHT22;21562;49.476;6.086;2023-05-19T14:23:35;22.80;76.20
35445;DHT22;21562;49.476;6.086;2023-05-19T14:26:01;23.00;75.10
35445;DHT22;21562;49.476;6.086;2023-05-19T14:28:27;23.20;75.80
35445;DHT22;21562;49.476;6.086;2023-05-19T14:30:52;23.30;75.40
35445;DHT22;21562;49.476;6.086;2023-05-19T14:33:19;23.10;76.00
35445;DHT22;21562;49.476;6.086;2023-05-19T14:35:44;23.00;74.90
35445;DHT22;21562;49.476;6.086;2023-05-19T14:38:10;22.80;74.00
35445;DHT22;21562;49.476;6.086;2023-05-19T14:40:36;22.70;73.60
35445;DHT22;21562;49.476;6.086;2023-05-19T14:43:02;22.80;74.40
35445;DHT22;21562;49.476;6.086;2023-05-19T14:45:28;22.90;75.60
35445;DHT22;21562;49.476;6.086;2023-05-19T14:47:53;22.90;75.30
35445;DHT22;21562;49.476;6.086;2023-05-19T14:50:19;22.90;75.00
35445;DHT22;21562;49.476;6.086;2023-05-19T14:52:45;22.70;74.50
35445;DHT22;21562;49.476;6.086;2023-05-19T14:55:10;22.90;74.90
35445;DHT22;21562;49.476;6.086;2023-05-19T14:57:36;22.90;75.50
35445;DHT22;21562;49.476;6.086;2023-05-19T15:00:02;22.90;75.30
35445;DHT22;21562;49.476;6.086;2023-05-19T15:02:28;22.80;75.10
35445;DHT22;21562;49.476;6.086;2023-05-19T15:04:53;22.50;75.70
35445;DHT22;21562;49.476;6.086;2023-05-19T15:07:19;22.30;76.40
35445;DHT22;21562;49.476;6.086;2023-05-19T15:09:44;22.30;76.80
35445;DHT22;21562;49.476;6.086;2023-05-19T15:12:10;22.60;76.60
35445;DHT22;21562;49.476;6.086;2023-05-19T15:14:36;22.50;76.20
35445;DHT22;21562;49.476;6.086;2023-05-19T15:17:01;22.50;76.10
35445;DHT22;21562;49.476;6.086;2023-05-19T15:19:27;22.50;76.80
35445;DHT22;21562;49.476;6.086;2023-05-19T15:21:52;22.40;77.10
35445;DHT22;21562;49.476;6.086;2023-05-19T15:24:18;22.10;78.10
35445;DHT22;21562;49.476;6.086;2023-05-19T15:26:44;21.70;78.60
35445;DHT22;21562;49.476;6.086;2023-05-19T15:29:10;21.70;78.10
35445;DHT22;21562;49.476;6.086;2023-05-19T15:31:35;21.50;79.10
35445;DHT22;21562;49.476;6.086;2023-05-19T15:34:01;21.70;78.10
35445;DHT22;21562;49.476;6.086;2023-05-19T15:36:26;21.60;78.50
35445;DHT22;21562;49.476;6.086;2023-05-19T15:38:52;21.60;78.70
35445;DHT22;21562;49.476;6.086;2023-05-19T15:41:18;21.70;79.60
35445;DHT22;21562;49.476;6.086;2023-05-19T15:43:43;21.50;80.40
35445;DHT22;21562;49.476;6.086;2023-05-19T15:46:10;21.40;79.90
35445;DHT22;21562;49.476;6.086;2023-05-19T15:48:37;21.30;79.80
35445;DHT22;21562;49.476;6.086;2023-05-19T15:51:03;21.40;79.80
35445;DHT22;21562;49.476;6.086;2023-05-19T15:53:29;21.50;79.70
35445;DHT22;21562;49.476;6.086;2023-05-19T15:55:55;21.60;79.30
35445;DHT22;21562;49.476;6.086;2023-05-19T15:58:22;21.60;80.10
35445;DHT22;21562;49.476;6.086;2023-05-19T16:00:47;21.90;79.10
35445;DHT22;21562;49.476;6.086;2023-05-19T16:03:13;21.90;79.60
35445;DHT22;21562;49.476;6.086;2023-05-19T16:05:39;21.90;78.70